Time;durP1;ratioP1;P1;durP2;ratioP2;P2;SDS_P1;SDS_P2;PMS_P1;PMS_P2;Temp;Humidity;BMP_temperature;BMP_pressure;BME280_temperature;BME280_humidity;BME280_pressure;Samples;Min_cycle;Max_cycle;Signal;HPM_P1;HPM_P2
2021/05/16 00:01:16;;;;;;;1.63;0.60;;;10.10;99.90;;;;;;5016301;28;20681;-80
2021/05/16 00:03:42;;;;;;;1.23;0.50;;;10.10;99.90;;;;;;5033919;28;20203;-81
2021/05/16 00:06:08;;;;;;;1.07;0.70;;;10.00;99.90;;;;;;5033852;28;20217;-81
2021/05/16 00:08:34;;;;;;;0.70;0.60;;;10.10;99.90;;;;;;5033775;28;20190;-82
2021/05/16 00:11:00;;;;;;;3.60;0.80;;;10.00;99.90;;;;;;5032864;28;20792;-80
2021/05/16 00:13:25;;;;;;;1.00;0.63;;;10.00;99.90;;;;;;5033555;28;20245;-80
2021/05/16 00:15:51;;;;;;;1.23;0.60;;;10.10;99.90;;;;;;5033633;28;20480;-80
2021/05/16 00:18:17;;;;;;;1.83;1.03;;;10.10;99.90;;;;;;5033607;28;20213;-81
2021/05/16 00:20:42;;;;;;;1.53;1.10;;;10.00;99.90;;;;;;5016837;28;20181;-80
2021/05/16 00:23:08;;;;;;;1.70;0.80;;;10.10;99.90;;;;;;5034192;28;20604;-80
2021/05/16 00:25:35;;;;;;;1.43;0.70;;;10.10;99.90;;;;;;5033913;28;20192;-80
2021/05/16 00:28:01;;;;;;;1.63;0.60;;;10.10;99.90;;;;;;5033616;28;20182;-80
2021/05/16 00:30:27;;;;;;;1.67;0.70;;;10.10;99.90;;;;;;5033833;28;20419;-80
2021/05/16 00:32:54;;;;;;;1.00;0.60;;;10.10;99.90;;;;;;5015620;28;20421;-81
2021/05/16 00:35:22;;;;;;;2.60;0.90;;;10.10;99.90;;;;;;5033171;28;20484;-80
2021/05/16 00:37:47;;;;;;;1.43;0.73;;;10.10;99.90;;;;;;5033447;28;20459;-80
2021/05/16 00:40:14;;;;;;;3.70;0.60;;;10.10;99.90;;;;;;5033984;28;20416;-81
2021/05/16 00:42:40;;;;;;;0.70;0.70;;;10.10;99.90;;;;;;5033788;28;20173;-80
2021/05/16 00:45:12;;;;;;;2.10;0.70;;;10.10;99.90;;;;;;5033357;28;21019;-81
2021/05/16 00:47:38;;;;;;;1.60;0.70;;;10.10;99.90;;;;;;5033082;28;20179;-80
2021/05/16 00:50:07;;;;;;;0.93;0.80;;;10.20;99.90;;;;;;5033200;28;20414;-80
2021/05/16 00:52:33;;;;;;;2.43;0.57;;;10.20;99.90;;;;;;5033124;28;20418;-82
2021/05/16 00:54:59;;;;;;;1.67;0.70;;;10.20;99.90;;;;;;5032906;28;20794;-81
2021/05/16 00:57:24;;;;;;;5.60;0.77;;;10.20;99.90;;;;;;5032922;28;20181;-82
2021/05/16 00:59:50;;;;;;;5.30;1.13;;;10.20;99.90;;;;;;5032976;28;20179;-81
2021/05/16 01:02:18;;;;;;;1.33;0.60;;;10.20;99.90;;;;;;5015294;28;20588;-80
2021/05/16 01:04:43;;;;;;;3.70;0.80;;;10.20;99.90;;;;;;5032353;28;20200;-81
2021/05/16 01:07:09;;;;;;;2.40;0.87;;;10.20;99.90;;;;;;5032801;28;20416;-80
2021/05/16 01:09:36;;;;;;;2.10;1.10;;;10.20;99.90;;;;;;5032532;28;20293;-80
2021/05/16 01:12:04;;;;;;;5.00;1.00;;;10.20;99.90;;;;;;5032588;28;20891;-80
2021/05/16 01:14:35;;;;;;;4.00;0.90;;;10.20;99.90;;;;;;5032153;28;20430;-79
2021/05/16 01:17:02;;;;;;;1.73;1.03;;;10.20;99.90;;;;;;5032940;28;20770;-81
2021/05/16 01:19:32;;;;;;;3.73;1.07;;;10.20;99.90;;;;;;5014577;28;20462;-81
2021/05/16 01:21:59;;;;;;;5.70;1.07;;;10.10;99.90;;;;;;5014692;28;20412;-80
2021/05/16 01:24:26;;;;;;;5.77;0.90;;;10.10;99.90;;;;;;5031045;28;20524;-80
2021/05/16 01:26:53;;;;;;;1.80;0.90;;;10.10;99.90;;;;;;5014535;28;20417;-81
2021/05/16 01:29:22;;;;;;;0.80;0.80;;;10.10;99.90;;;;;;5017720;28;20416;-80
2021/05/16 01:31:48;;;;;;;1.87;0.80;;;10.10;99.90;;;;;;5032478;28;20419;-81
2021/05/16 01:34:15;;;;;;;1.70;0.80;;;10.10;99.90;;;;;;5014627;28;20470;-81
2021/05/16 01:36:40;;;;;;;5.07;1.00;;;10.10;99.90;;;;;;5014403;28;20501;-81
2021/05/16 01:39:09;;;;;;;3.43;1.00;;;10.10;99.90;;;;;;5014275;28;20559;-81
2021/05/16 01:41:35;;;;;;;2.10;0.90;;;10.10;99.90;;;;;;5032319;28;20167;-80
2021/05/16 01:44:01;;;;;;;1.70;0.77;;;10.10;99.90;;;;;;5031854;28;20427;-78
2021/05/16 01:46:27;;;;;;;3.13;0.70;;;10.10;99.90;;;;;;5032555;28;20172;-80
2021/05/16 01:48:52;;;;;;;3.03;1.00;;;10.00;99.90;;;;;;5032549;28;20413;-81
2021/05/16 01:51:21;;;;;;;1.07;0.70;;;10.10;99.90;;;;;;5033289;28;20222;-81
2021/05/16 01:53:48;;;;;;;0.97;0.90;;;10.10;99.90;;;;;;5014870;28;20194;-81
2021/05/16 01:56:22;;;;;;;2.13;1.00;;;10.10;99.90;;;;;;5032852;28;20438;-80
2021/05/16 01:58:48;;;;;;;2.90;0.77;;;10.10;99.90;;;;;;5032564;28;20480;-81
2021/05/16 02:01:14;;;;;;;2.83;1.23;;;10.10;99.90;;;;;;5032785;28;20783;-81
2021/05/16 02:03:41;;;;;;;2.80;0.87;;;10.10;99.90;;;;;;5032737;28;20179;-81
2021/05/16 02:06:07;;;;;;;1.30;0.80;;;10.10;99.90;;;;;;5014971;28;20208;-80
2021/05/16 02:08:34;;;;;;;1.37;1.10;;;10.00;99.90;;;;;;5015086;28;20416;-81
2021/05/16 02:11:01;;;;;;;2.20;0.90;;;10.00;99.90;;;;;;5032656;28;20425;-81
2021/05/16 02:13:27;;;;;;;2.87;0.90;;;10.00;99.90;;;;;;5032229;28;20476;-80
2021/05/16 02:15:52;;;;;;;2.90;0.90;;;10.00;99.90;;;;;;5032421;28;21055;-80
2021/05/16 02:18:18;;;;;;;2.03;1.00;;;10.00;99.90;;;;;;5032468;28;20206;-81
2021/05/16 02:20:44;;;;;;;2.03;0.90;;;10.10;99.90;;;;;;5032628;28;20545;-82
2021/05/16 02:23:10;;;;;;;3.27;1.10;;;10.00;99.90;;;;;;5032152;28;20175;-82
2021/05/16 02:25:36;;;;;;;1.50;1.40;;;10.00;99.90;;;;;;5032016;28;20478;-81
2021/05/16 02:28:02;;;;;;;1.43;1.03;;;10.00;99.90;;;;;;5032127;28;20185;-81
2021/05/16 02:30:28;;;;;;;2.40;0.93;;;10.10;99.90;;;;;;5014433;28;20186;-80
2021/05/16 02:32:53;;;;;;;2.90;1.30;;;10.10;99.90;;;;;;5031837;28;20481;-81
2021/05/16 02:35:19;;;;;;;2.50;1.20;;;10.00;99.90;;;;;;5034241;28;20222;-81
2021/05/16 02:37:44;;;;;;;1.47;0.90;;;10.10;99.90;;;;;;5018499;28;20211;-81
2021/05/16 02:40:11;;;;;;;0.80;0.80;;;10.10;99.90;;;;;;5036198;28;20173;-81
2021/05/16 02:42:38;;;;;;;1.33;1.00;;;10.00;99.90;;;;;;5018189;28;20189;-81
2021/05/16 02:45:04;;;;;;;0.87;0.83;;;10.00;99.90;;;;;;5035518;28;20930;-81
2021/05/16 02:47:30;;;;;;;2.17;1.20;;;10.00;99.90;;;;;;5017948;28;20449;-81
2021/05/16 02:49:56;;;;;;;2.07;1.13;;;10.00;99.90;;;;;;5017573;28;20411;-81
2021/05/16 02:52:21;;;;;;;2.60;1.03;;;10.00;99.90;;;;;;5035799;28;20180;-82
2021/05/16 02:54:47;;;;;;;4.17;1.10;;;9.90;99.90;;;;;;5017483;28;20570;-81
2021/05/16 02:57:13;;;;;;;2.40;1.40;;;9.90;99.90;;;;;;5017968;28;20184;-81
2021/05/16 02:59:38;;;;;;;7.27;1.20;;;9.90;99.90;;;;;;5035394;28;20517;-81
2021/05/16 03:02:04;;;;;;;1.87;0.90;;;9.90;99.90;;;;;;5035750;28;20550;-81
2021/05/16 03:04:30;;;;;;;1.57;1.00;;;9.90;99.90;;;;;;5035505;28;20188;-81
2021/05/16 03:06:56;;;;;;;2.00;1.20;;;9.80;99.90;;;;;;5035343;28;20414;-81
2021/05/16 03:09:22;;;;;;;1.33;1.13;;;9.80;99.90;;;;;;5035106;28;20172;-81
2021/05/16 03:11:48;;;;;;;1.60;1.50;;;9.80;99.90;;;;;;5034774;28;20423;-81
2021/05/16 03:14:13;;;;;;;3.90;1.57;;;9.80;99.90;;;;;;5034945;28;20646;-81
2021/05/16 03:16:39;;;;;;;1.13;1.03;;;9.70;99.90;;;;;;5035083;28;20217;-81
2021/05/16 03:19:05;;;;;;;11.10;1.40;;;9.70;99.90;;;;;;5017100;28;20207;-81
2021/05/16 03:21:30;;;;;;;1.43;1.27;;;9.70;99.90;;;;;;5035112;28;20548;-80
2021/05/16 03:23:56;;;;;;;3.13;1.00;;;9.80;99.90;;;;;;5033163;28;20723;-81
2021/05/16 03:26:23;;;;;;;3.23;0.90;;;9.70;99.90;;;;;;5034719;28;20202;-82
2021/05/16 03:28:49;;;;;;;1.90;1.10;;;9.70;99.90;;;;;;5034976;28;20665;-81
2021/05/16 03:31:15;;;;;;;2.00;0.90;;;9.70;99.90;;;;;;5017195;28;20429;-81
2021/05/16 03:33:40;;;;;;;1.93;1.03;;;9.70;99.90;;;;;;5034514;28;20430;-81
2021/05/16 03:36:06;;;;;;;3.93;1.40;;;9.70;99.90;;;;;;5034534;28;20200;-81
2021/05/16 03:38:32;;;;;;;5.87;0.80;;;9.80;99.90;;;;;;5016554;28;20217;-81
2021/05/16 03:40:58;;;;;;;3.70;1.43;;;9.80;99.90;;;;;;5034876;28;20171;-81
2021/05/16 03:43:23;;;;;;;3.63;1.50;;;9.80;99.90;;;;;;5034186;28;20178;-80
2021/05/16 03:45:49;;;;;;;2.27;1.10;;;9.80;99.90;;;;;;5034334;28;20531;-83
2021/05/16 03:48:15;;;;;;;2.40;1.20;;;9.80;99.90;;;;;;5016331;28;20571;-81
2021/05/16 03:50:40;;;;;;;1.30;1.20;;;9.80;99.90;;;;;;5034620;28;20171;-81
2021/05/16 03:53:06;;;;;;;2.80;1.40;;;9.80;99.90;;;;;;5033873;28;20212;-80
2021/05/16 03:55:32;;;;;;;6.17;1.60;;;9.80;99.90;;;;;;5034000;28;20215;-80
2021/05/16 03:57:58;;;;;;;3.77;1.40;;;9.80;99.90;;;;;;5033777;28;20823;-80
2021/05/16 04:00:23;;;;;;;3.17;1.00;;;9.80;99.90;;;;;;5034178;28;20208;-80
2021/05/16 04:02:49;;;;;;;1.87;1.07;;;9.80;99.90;;;;;;5033975;28;20255;-80
2021/05/16 04:05:15;;;;;;;3.60;1.63;;;9.80;99.90;;;;;;5016082;28;20200;-80
2021/05/16 04:07:41;;;;;;;3.23;1.10;;;9.80;99.90;;;;;;5034018;28;20227;-81
2021/05/16 04:10:07;;;;;;;2.37;1.20;;;9.80;99.90;;;;;;5034396;28;20189;-80
2021/05/16 04:12:33;;;;;;;1.93;1.20;;;9.80;99.90;;;;;;5034483;28;20430;-80
2021/05/16 04:14:59;;;;;;;3.70;1.40;;;9.80;99.90;;;;;;5033979;28;20427;-81
2021/05/16 04:17:24;;;;;;;2.70;1.97;;;9.70;99.90;;;;;;5033809;28;20207;-80
2021/05/16 04:19:50;;;;;;;3.80;1.20;;;9.70;99.90;;;;;;5034254;28;20227;-81
2021/05/16 04:22:15;;;;;;;2.43;1.33;;;9.60;99.90;;;;;;5034028;28;20172;-81
2021/05/16 04:24:41;;;;;;;2.00;1.00;;;9.60;99.90;;;;;;5033844;28;20204;-81
2021/05/16 04:27:07;;;;;;;2.57;1.30;;;9.60;99.90;;;;;;5034094;28;20183;-81
2021/05/16 04:29:32;;;;;;;4.87;1.20;;;9.50;99.90;;;;;;5033642;28;20190;-81
2021/05/16 04:31:58;;;;;;;3.83;1.27;;;9.50;99.90;;;;;;5033938;28;20232;-81
2021/05/16 04:34:23;;;;;;;2.20;1.10;;;9.60;99.90;;;;;;5032853;28;20567;-81
2021/05/16 04:36:49;;;;;;;4.73;1.47;;;9.60;99.90;;;;;;5033864;28;20177;-81
2021/05/16 04:39:15;;;;;;;1.57;1.10;;;9.60;99.90;;;;;;5033209;28;20254;-81
2021/05/16 04:41:41;;;;;;;2.70;1.03;;;9.60;99.90;;;;;;5033416;28;20540;-81
2021/05/16 04:44:06;;;;;;;1.00;0.90;;;9.70;99.90;;;;;;5015211;28;20233;-82
2021/05/16 04:46:32;;;;;;;1.37;1.07;;;9.70;99.90;;;;;;5033644;28;20196;-81
2021/05/16 04:48:58;;;;;;;1.40;1.30;;;9.80;99.90;;;;;;5033130;28;20206;-80
2021/05/16 04:51:23;;;;;;;2.10;0.90;;;9.80;99.90;;;;;;5033277;28;20177;-81
2021/05/16 04:53:49;;;;;;;1.03;0.90;;;9.80;99.90;;;;;;5015163;28;20184;-81
2021/05/16 04:56:15;;;;;;;3.63;1.40;;;9.70;99.90;;;;;;5032571;28;20195;-80
2021/05/16 04:58:41;;;;;;;4.43;1.20;;;9.80;99.90;;;;;;5032506;28;20226;-80
2021/05/16 05:01:06;;;;;;;4.60;1.57;;;9.80;99.90;;;;;;5032815;28;20451;-80
2021/05/16 05:03:33;;;;;;;2.83;0.93;;;9.80;99.90;;;;;;5032411;28;20261;-80
2021/05/16 05:05:59;;;;;;;1.47;0.80;;;9.90;99.90;;;;;;5032406;28;20187;-80
2021/05/16 05:08:26;;;;;;;4.53;2.27;;;10.00;99.90;;;;;;5032857;28;20436;-80
2021/05/16 05:10:52;;;;;;;1.07;0.90;;;10.10;99.90;;;;;;5032708;28;20607;-80
2021/05/16 05:13:18;;;;;;;3.13;0.80;;;10.30;99.90;;;;;;5032588;28;20411;-80
2021/05/16 05:15:44;;;;;;;1.83;0.83;;;10.60;99.90;;;;;;5032515;28;20489;-80
2021/05/16 05:18:09;;;;;;;1.53;0.83;;;10.70;99.90;;;;;;5016196;28;20195;-79
2021/05/16 05:20:35;;;;;;;2.23;0.73;;;11.50;99.90;;;;;;5033203;28;20636;-81
2021/05/16 05:23:01;;;;;;;2.03;0.70;;;13.10;99.90;;;;;;5032400;28;20241;-80
2021/05/16 05:25:30;;;;;;;0.60;0.60;;;13.60;99.90;;;;;;5032404;28;20285;-80
2021/05/16 05:27:56;;;;;;;1.43;0.63;;;13.10;99.90;;;;;;5032714;28;20181;-80
2021/05/16 05:30:25;;;;;;;0.60;0.60;;;12.70;99.90;;;;;;5032357;28;20728;-80
2021/05/16 05:32:51;;;;;;;2.10;0.70;;;12.10;99.90;;;;;;5032432;28;20180;-80
2021/05/16 05:35:17;;;;;;;3.33;1.03;;;11.70;99.90;;;;;;5014430;28;20467;-80
2021/05/16 05:37:44;;;;;;;2.87;0.77;;;11.50;99.90;;;;;;5032358;28;20453;-80
2021/05/16 05:40:11;;;;;;;1.57;0.67;;;11.30;99.90;;;;;;5032289;28;20168;-81
2021/05/16 05:42:36;;;;;;;5.23;0.87;;;11.00;99.90;;;;;;5014574;28;20425;-80
2021/05/16 05:45:04;;;;;;;6.40;0.77;;;10.90;99.90;;;;;;5032209;28;20448;-80
2021/05/16 05:47:29;;;;;;;5.23;0.83;;;10.70;99.90;;;;;;5032061;28;20173;-81
2021/05/16 05:49:55;;;;;;;2.00;0.90;;;10.60;99.90;;;;;;5014169;28;20414;-80
2021/05/16 05:52:20;;;;;;;6.30;1.40;;;10.50;99.90;;;;;;5032218;28;20186;-81
2021/05/16 05:54:46;;;;;;;1.67;1.57;;;10.40;99.90;;;;;;5032002;28;20200;-80
2021/05/16 05:57:11;;;;;;;2.27;0.80;;;10.30;99.90;;;;;;5032091;28;20173;-81
2021/05/16 05:59:37;;;;;;;3.23;0.70;;;10.30;99.90;;;;;;5014158;28;20200;-81
2021/05/16 06:02:03;;;;;;;2.50;1.03;;;10.30;99.90;;;;;;5031755;28;20177;-74
2021/05/16 06:04:30;;;;;;;1.93;0.73;;;10.30;99.90;;;;;;5030894;28;20200;-74
2021/05/16 06:06:55;;;;;;;6.83;0.83;;;10.40;99.90;;;;;;5031373;28;20832;-74
2021/05/16 06:09:21;;;;;;;2.20;0.80;;;10.50;99.90;;;;;;5031716;28;20411;-74
2021/05/16 06:11:46;;;;;;;0.73;0.73;;;10.50;99.90;;;;;;5035400;28;20537;-74
2021/05/16 06:14:12;;;;;;;7.47;1.40;;;10.60;99.90;;;;;;5034820;28;20252;-74
2021/05/16 06:16:38;;;;;;;2.47;0.90;;;10.90;99.90;;;;;;5035174;28;20188;-74
2021/05/16 06:19:03;;;;;;;1.83;0.63;;;11.10;99.90;;;;;;5035120;28;20672;-74
2021/05/16 06:21:29;;;;;;;2.10;0.60;;;11.30;99.90;;;;;;5035085;28;20180;-73
2021/05/16 06:24:08;;;;;;;3.03;0.90;;;11.30;99.90;;;;;;5034830;28;20408;-74
2021/05/16 06:26:38;;;;;;;3.23;1.30;;;11.50;99.90;;;;;;5035038;28;20242;-73
2021/05/16 06:29:05;;;;;;;1.77;1.00;;;12.00;99.90;;;;;;5034902;28;20499;-74
2021/05/16 06:31:30;;;;;;;4.10;0.90;;;12.50;99.90;;;;;;5034755;28;20424;-74
2021/05/16 06:33:56;;;;;;;2.00;0.67;;;13.20;99.90;;;;;;5036083;28;20823;-72
2021/05/16 06:36:22;;;;;;;3.87;1.00;;;13.90;99.90;;;;;;5035396;28;20193;-74
2021/05/16 06:38:48;;;;;;;2.10;0.70;;;14.40;99.90;;;;;;5035308;28;20467;-74
2021/05/16 06:41:13;;;;;;;1.77;0.70;;;14.80;99.90;;;;;;5034480;28;20412;-75
2021/05/16 06:43:39;;;;;;;1.20;0.50;;;15.20;99.90;;;;;;5034794;28;20178;-74
2021/05/16 06:46:05;;;;;;;0.80;0.80;;;15.20;99.90;;;;;;5034806;28;20198;-74
2021/05/16 06:48:30;;;;;;;2.53;0.80;;;15.10;99.90;;;;;;5034539;28;20261;-73
2021/05/16 06:50:56;;;;;;;2.63;0.70;;;14.80;99.90;;;;;;5034712;28;20265;-74
2021/05/16 06:53:21;;;;;;;1.20;0.63;;;14.70;99.90;;;;;;5034452;28;20174;-73
2021/05/16 06:55:47;;;;;;;1.80;0.63;;;14.70;99.90;;;;;;5034398;28;20253;-74
2021/05/16 06:58:14;;;;;;;1.30;0.63;;;14.60;99.90;;;;;;5034167;28;20584;-74
2021/05/16 07:00:40;;;;;;;2.73;0.70;;;14.50;99.90;;;;;;5034469;28;20177;-73
2021/05/16 07:03:06;;;;;;;1.80;0.60;;;14.40;99.90;;;;;;5034142;28;20408;-73
2021/05/16 07:05:32;;;;;;;6.60;1.40;;;14.50;99.90;;;;;;5034351;28;20243;-73
2021/05/16 07:07:58;;;;;;;2.53;0.90;;;14.50;99.90;;;;;;5034207;28;20423;-73
2021/05/16 07:10:23;;;;;;;1.80;0.83;;;14.40;99.90;;;;;;5034242;28;20408;-73
2021/05/16 07:12:49;;;;;;;1.83;0.60;;;14.40;99.90;;;;;;5033927;28;20539;-73
2021/05/16 07:15:16;;;;;;;2.60;0.80;;;14.30;99.90;;;;;;5034064;28;20244;-73
2021/05/16 07:17:41;;;;;;;1.50;0.60;;;14.30;99.90;;;;;;5030451;28;20668;-74
2021/05/16 07:20:07;;;;;;;1.43;0.50;;;14.30;99.90;;;;;;5025130;28;20416;-73
2021/05/16 07:22:33;;;;;;;3.33;0.90;;;14.20;99.90;;;;;;5033635;28;20189;-71
2021/05/16 07:24:59;;;;;;;2.00;0.70;;;14.00;99.90;;;;;;5034987;28;20429;-73
2021/05/16 07:27:25;;;;;;;0.93;0.70;;;13.90;99.90;;;;;;5015936;28;20261;-72
2021/05/16 07:29:50;;;;;;;1.63;0.50;;;13.80;99.90;;;;;;5033813;28;20659;-73
2021/05/16 07:32:16;;;;;;;2.30;0.90;;;13.70;99.90;;;;;;5033419;28;20541;-73
2021/05/16 07:34:42;;;;;;;3.17;0.90;;;13.70;99.90;;;;;;5015583;28;20210;-71
2021/05/16 07:37:08;;;;;;;1.90;0.60;;;13.70;99.90;;;;;;5033483;28;20420;-74
2021/05/16 07:39:34;;;;;;;3.50;0.70;;;13.70;99.90;;;;;;5033244;28;20209;-73
2021/05/16 07:41:59;;;;;;;2.70;0.80;;;13.70;99.90;;;;;;5032518;28;20406;-73
2021/05/16 07:44:25;;;;;;;3.43;0.83;;;13.80;99.90;;;;;;5033105;28;20201;-73
2021/05/16 07:46:50;;;;;;;1.07;0.50;;;13.80;99.90;;;;;;5033238;28;20181;-73
2021/05/16 07:49:16;;;;;;;2.60;0.60;;;13.80;99.90;;;;;;5033171;28;20193;-73
2021/05/16 07:51:41;;;;;;;1.47;0.70;;;13.90;99.90;;;;;;5033376;28;20186;-73
2021/05/16 07:54:08;;;;;;;2.00;0.67;;;14.00;99.90;;;;;;5032973;28;20224;-73
2021/05/16 07:56:34;;;;;;;5.73;0.70;;;14.20;99.90;;;;;;5033254;28;20197;-73
2021/05/16 07:58:59;;;;;;;0.50;0.50;;;14.50;99.90;;;;;;5014834;28;20985;-73
2021/05/16 08:01:25;;;;;;;2.80;0.57;;;15.30;99.90;;;;;;5033028;28;20542;-74
2021/05/16 08:03:50;;;;;;;0.90;0.80;;;15.70;99.90;;;;;;5033088;28;20671;-73
2021/05/16 08:06:16;;;;;;;0.90;0.70;;;15.60;99.90;;;;;;5033020;28;20201;-72
2021/05/16 08:08:42;;;;;;;0.70;0.50;;;15.50;99.90;;;;;;5033219;28;20646;-73
2021/05/16 08:11:07;;;;;;;1.53;0.50;;;15.30;99.90;;;;;;5033280;28;20186;-74
2021/05/16 08:13:33;;;;;;;1.20;0.73;;;15.10;99.90;;;;;;5032878;28;20174;-73
2021/05/16 08:15:59;;;;;;;2.03;0.67;;;14.90;99.90;;;;;;5033132;28;20204;-73
2021/05/16 08:18:24;;;;;;;2.10;0.90;;;14.70;99.90;;;;;;5032970;28;21005;-73
2021/05/16 08:20:50;;;;;;;1.17;0.60;;;14.70;99.90;;;;;;5033177;28;20257;-73
2021/05/16 08:23:15;;;;;;;3.07;0.60;;;14.80;99.90;;;;;;5032747;28;20174;-73
2021/05/16 08:25:41;;;;;;;1.17;0.60;;;14.90;99.90;;;;;;5033169;28;20194;-73
2021/05/16 08:28:08;;;;;;;1.53;0.70;;;15.30;99.90;;;;;;5032319;28;20582;-73
2021/05/16 08:30:34;;;;;;;1.57;0.60;;;15.90;99.90;;;;;;5015058;28;20186;-74
2021/05/16 08:33:00;;;;;;;1.13;0.70;;;16.80;99.90;;;;;;5031870;28;20488;-73
2021/05/16 08:35:25;;;;;;;6.23;0.77;;;17.30;99.90;;;;;;5032186;28;20256;-73
2021/05/16 08:37:51;;;;;;;2.00;1.03;;;17.90;99.90;;;;;;5032469;28;20185;-74
2021/05/16 08:40:17;;;;;;;1.53;0.53;;;18.70;99.90;;;;;;5032678;28;20174;-74
2021/05/16 08:42:43;;;;;;;1.97;0.60;;;18.80;99.90;;;;;;5032450;28;20174;-72
2021/05/16 08:45:12;;;;;;;0.93;0.80;;;19.30;99.90;;;;;;5032278;28;20866;-74
2021/05/16 08:47:40;;;;;;;1.73;0.70;;;19.60;99.90;;;;;;5032464;28;20417;-74
2021/05/16 08:50:08;;;;;;;1.37;0.60;;;19.90;99.90;;;;;;5032365;28;20412;-74
2021/05/16 08:52:34;;;;;;;1.80;0.70;;;20.60;99.90;;;;;;5032091;28;20938;-74
2021/05/16 08:54:59;;;;;;;2.20;0.70;;;20.80;99.90;;;;;;5032117;28;20429;-74
2021/05/16 08:57:25;;;;;;;6.23;0.70;;;20.90;99.90;;;;;;5032069;28;20181;-74
2021/05/16 09:00:14;;;;;;;1.10;0.60;;;20.90;99.90;;;;;;5032187;28;20586;-73
2021/05/16 09:03:10;;;;;;;4.77;0.90;;;21.00;99.90;;;;;;5032177;28;20174;-73
2021/05/16 09:05:38;;;;;;;2.93;0.73;;;21.00;99.90;;;;;;5032137;28;20421;-74
2021/05/16 09:08:15;;;;;;;5.57;0.80;;;20.10;99.90;;;;;;5031955;28;20436;-74
2021/05/16 09:11:02;;;;;;;1.57;0.73;;;19.20;99.90;;;;;;5032174;28;20408;-73
2021/05/16 09:13:34;;;;;;;3.37;0.70;;;19.50;99.90;;;;;;5031757;28;20495;-73
2021/05/16 09:16:07;;;;;;;1.30;0.80;;;20.20;99.90;;;;;;5031881;28;20429;-73
2021/05/16 09:18:36;;;;;;;3.50;0.97;;;20.30;99.90;;;;;;5030550;28;20456;-72
2021/05/16 09:21:29;;;;;;;1.67;1.00;;;20.10;99.90;;;;;;5014175;28;20922;-73
2021/05/16 09:24:07;;;;;;;4.00;0.93;;;19.60;99.90;;;;;;5031654;28;20441;-72
2021/05/16 09:26:48;;;;;;;1.20;0.80;;;18.90;99.90;;;;;;5031576;28;20968;-72
2021/05/16 09:29:29;;;;;;;3.23;0.80;;;18.30;99.90;;;;;;5031556;28;20408;-73
2021/05/16 09:31:56;;;;;;;1.97;0.80;;;18.40;99.90;;;;;;5033518;28;20441;-73
2021/05/16 09:34:22;;;;;;;1.00;0.70;;;18.50;99.90;;;;;;5031118;28;20439;-72
2021/05/16 09:36:49;;;;;;;8.73;1.33;;;18.60;99.90;;;;;;5031504;28;20412;-73
2021/05/16 09:39:19;;;;;;;1.83;0.60;;;18.60;99.90;;;;;;5031266;28;20244;-73
2021/05/16 09:42:04;;;;;;;5.33;0.80;;;18.40;99.90;;;;;;5031543;28;20791;-72
2021/05/16 09:44:38;;;;;;;4.93;0.90;;;18.20;99.90;;;;;;5013307;28;20860;-73
2021/05/16 09:47:23;;;;;;;2.97;1.20;;;18.30;99.90;;;;;;5031051;28;20410;-72
2021/05/16 09:49:49;;;;;;;2.87;0.70;;;18.20;99.90;;;;;;5031410;28;20419;-73
2021/05/16 09:52:18;;;;;;;2.70;0.90;;;18.10;99.90;;;;;;5031433;28;20401;-73
2021/05/16 09:55:03;;;;;;;7.80;1.50;;;17.90;99.90;;;;;;5030892;28;20801;-73
2021/05/16 09:57:31;;;;;;;1.90;0.90;;;18.10;99.90;;;;;;5031180;28;20409;-73
2021/05/16 09:59:57;;;;;;;5.67;1.10;;;18.80;99.90;;;;;;5031037;28;20463;-73
2021/05/16 10:02:26;;;;;;;3.37;0.97;;;19.30;99.90;;;;;;5031141;28;20423;-72
2021/05/16 10:04:57;;;;;;;3.00;0.80;;;19.40;99.90;;;;;;5030975;28;21024;-73
2021/05/16 10:07:24;;;;;;;5.80;1.13;;;19.80;99.90;;;;;;5031075;28;20926;-73
2021/05/16 10:09:51;;;;;;;6.60;1.70;;;19.90;99.90;;;;;;5031150;28;20419;-72
2021/05/16 10:12:20;;;;;;;4.13;0.80;;;19.70;99.90;;;;;;5031112;28;20413;-73
2021/05/16 10:15:23;;;;;;;1.73;0.77;;;19.50;99.90;;;;;;5030858;28;20428;-73
2021/05/16 10:17:52;;;;;;;2.93;0.70;;;20.50;99.90;;;;;;5030860;28;20423;-72
2021/05/16 10:20:22;;;;;;;2.50;0.77;;;21.70;99.90;;;;;;5031072;28;20901;-74
2021/05/16 10:22:58;;;;;;;3.63;1.00;;;22.40;99.90;;;;;;5030927;28;20415;-73
2021/05/16 10:25:39;;;;;;;1.67;1.10;;;22.70;99.90;;;;;;5030970;28;20432;-74
2021/05/16 10:28:05;;;;;;;2.90;0.63;;;22.10;99.90;;;;;;5030938;28;20416;-73
2021/05/16 10:30:30;;;;;;;1.80;0.60;;;21.10;99.90;;;;;;5030950;28;20427;-72
2021/05/16 10:32:56;;;;;;;3.07;0.87;;;21.00;99.90;;;;;;5030897;28;20178;-74
2021/05/16 10:35:23;;;;;;;1.53;0.60;;;20.70;99.90;;;;;;5030856;28;20695;-74
2021/05/16 10:37:55;;;;;;;1.70;0.90;;;20.10;99.90;;;;;;5012812;28;20182;-74
2021/05/16 10:40:25;;;;;;;2.03;0.90;;;19.60;99.90;;;;;;5030754;28;20788;-74
2021/05/16 10:43:04;;;;;;;5.67;1.10;;;19.90;99.90;;;;;;5030771;28;20914;-75
2021/05/16 10:45:32;;;;;;;3.30;0.73;;;19.80;99.90;;;;;;5013039;28;20459;-74
2021/05/16 10:48:11;;;;;;;3.97;1.20;;;19.40;99.90;;;;;;5030798;28;20470;-74
2021/05/16 10:50:57;;;;;;;3.80;1.03;;;19.90;99.90;;;;;;5030856;28;20420;-74
2021/05/16 10:53:31;;;;;;;3.40;0.80;;;19.90;99.90;;;;;;5030478;28;20447;-75
2021/05/16 10:56:06;;;;;;;0.97;0.80;;;19.70;99.90;;;;;;5032529;28;20419;-74
2021/05/16 10:58:32;;;;;;;3.30;1.10;;;19.70;99.90;;;;;;5033504;28;20518;-74
2021/05/16 11:01:09;;;;;;;2.77;0.90;;;20.30;99.90;;;;;;5034821;28;20408;-74
2021/05/16 11:03:45;;;;;;;6.03;1.00;;;20.80;99.90;;;;;;5035167;28;20266;-74
2021/05/16 11:06:10;;;;;;;5.23;1.00;;;20.90;99.90;;;;;;5034374;28;20941;-74
2021/05/16 11:08:36;;;;;;;4.07;1.17;;;20.60;99.90;;;;;;5033957;28;20409;-74
2021/05/16 11:11:29;;;;;;;3.93;1.00;;;20.20;99.90;;;;;;5034555;28;20690;-73
2021/05/16 11:13:55;;;;;;;1.77;0.80;;;19.60;99.90;;;;;;5034541;28;20170;-74
2021/05/16 11:16:21;;;;;;;1.60;0.80;;;19.90;99.90;;;;;;5034100;28;20433;-74
2021/05/16 11:18:46;;;;;;;4.07;1.13;;;20.40;99.90;;;;;;5033913;28;20213;-74
2021/05/16 11:21:12;;;;;;;2.50;0.80;;;20.40;99.90;;;;;;5034080;28;20178;-74
2021/05/16 11:23:39;;;;;;;7.37;0.83;;;20.90;99.90;;;;;;5033730;28;20230;-74
2021/05/16 11:26:07;;;;;;;3.60;1.20;;;21.10;99.90;;;;;;5033808;28;20198;-75
2021/05/16 11:28:38;;;;;;;5.50;0.70;;;21.20;99.90;;;;;;5033868;28;20427;-74
2021/05/16 11:31:09;;;;;;;1.73;0.60;;;21.20;99.90;;;;;;5016230;28;20429;-74
2021/05/16 11:33:36;;;;;;;2.50;0.97;;;21.30;99.90;;;;;;5033525;28;20516;-74
2021/05/16 11:36:14;;;;;;;6.30;0.90;;;20.80;99.90;;;;;;5033736;28;20527;-74
2021/05/16 11:38:41;;;;;;;4.47;0.90;;;20.50;99.90;;;;;;5033316;28;20551;-73
2021/05/16 11:41:08;;;;;;;1.23;0.70;;;20.70;99.90;;;;;;5033835;28;20474;-74
2021/05/16 11:43:43;;;;;;;2.35;0.70;;;20.70;99.90;;;;;;5033090;28;20488;-72
2021/05/16 11:46:09;;;;;;;1.43;0.87;;;21.00;99.90;;;;;;5029893;28;20190;-73
2021/05/16 11:48:40;;;;;;;1.80;0.73;;;21.10;99.90;;;;;;5042933;28;20502;-74
2021/05/16 11:51:12;;;;;;;2.90;1.13;;;21.30;99.90;;;;;;5048235;28;20177;-73
2021/05/16 11:53:39;;;;;;;3.10;1.20;;;20.90;99.90;;;;;;5052857;28;20412;-73
2021/05/16 11:56:10;;;;;;;1.43;0.60;;;20.70;99.90;;;;;;5053107;28;20528;-73
2021/05/16 11:58:39;;;;;;;3.10;0.90;;;20.70;99.90;;;;;;5052871;28;20531;-73
2021/05/16 12:01:11;;;;;;;2.93;0.70;;;21.00;99.90;;;;;;5053116;28;20728;-74
2021/05/16 12:03:36;;;;;;;4.20;1.30;;;21.10;99.90;;;;;;5052749;28;20435;-73
2021/05/16 12:06:06;;;;;;;8.60;1.00;;;21.30;99.90;;;;;;5052828;28;20975;-73
2021/05/16 12:08:32;;;;;;;1.93;0.70;;;21.70;99.90;;;;;;5051578;28;20180;-72
2021/05/16 12:11:08;;;;;;;2.10;0.90;;;21.90;99.90;;;;;;5053009;28;20412;-73
2021/05/16 12:13:34;;;;;;;3.10;0.93;;;22.20;99.90;;;;;;5052459;28;20407;-73
2021/05/16 12:16:21;;;;;;;0.60;0.60;;;22.20;99.90;;;;;;5052600;28;20431;-74
2021/05/16 12:18:49;;;;;;;3.17;0.80;;;22.20;99.90;;;;;;5052526;28;20486;-74
2021/05/16 12:21:16;;;;;;;3.47;0.87;;;21.80;99.90;;;;;;5035000;28;20461;-74
2021/05/16 12:23:52;;;;;;;2.63;1.00;;;21.50;99.90;;;;;;5052367;28;20415;-73
2021/05/16 12:26:17;;;;;;;6.23;0.97;;;21.00;99.90;;;;;;5052474;28;20420;-73
2021/05/16 12:28:43;;;;;;;4.90;1.00;;;20.80;99.90;;;;;;5052200;28;20419;-73
2021/05/16 12:31:09;;;;;;;2.80;0.80;;;20.80;99.90;;;;;;5034594;28;20260;-73
2021/05/16 12:33:38;;;;;;;3.67;0.93;;;20.60;99.90;;;;;;5051890;28;20796;-73
2021/05/16 12:36:05;;;;;;;5.67;0.73;;;20.40;99.90;;;;;;5052441;28;20630;-73
2021/05/16 12:38:43;;;;;;;3.73;0.80;;;20.20;99.90;;;;;;5051948;28;20454;-73
2021/05/16 12:41:18;;;;;;;3.53;1.17;;;19.90;99.90;;;;;;5052673;28;20407;-74
2021/05/16 12:44:06;;;;;;;1.90;0.67;;;19.60;99.90;;;;;;5051897;28;20400;-72
2021/05/16 12:46:48;;;;;;;1.27;0.70;;;19.30;99.90;;;;;;5033983;28;20521;-74
2021/05/16 12:49:18;;;;;;;3.10;0.80;;;19.10;99.90;;;;;;5051998;28;20420;-74
2021/05/16 12:52:02;;;;;;;2.80;1.20;;;19.00;99.90;;;;;;5051189;28;20404;-72